sensor_id;sensor_type;location;lat;lon;timestamp;P1;durP1;ratioP1;P2;durP2;ratioP2
8652;SDS011;4364;52.426;9.424;2023-04-09T00:01:39;46.47;;;26.40;;
8652;SDS011;4364;52.426;9.424;2023-04-09T00:04:05;49.53;;;26.10;;
8652;SDS011;4364;52.426;9.424;2023-04-09T00:06:31;46.90;;;26.60;;
8652;SDS011;4364;52.426;9.424;2023-04-09T00:08:58;42.33;;;25.67;;
8652;SDS011;4364;52.426;9.424;2023-04-09T00:11:24;45.00;;;26.97;;
8652;SDS011;4364;52.426;9.424;2023-04-09T00:13:51;49.23;;;27.27;;
8652;SDS011;4364;52.426;9.424;2023-04-09T00:16:17;43.23;;;25.03;;
8652;SDS011;4364;52.426;9.424;2023-04-09T00:18:44;43.13;;;25.57;;
8652;SDS011;4364;52.426;9.424;2023-04-09T00:21:10;49.47;;;27.77;;
8652;SDS011;4364;52.426;9.424;2023-04-09T00:23:37;44.80;;;24.90;;
8652;SDS011;4364;52.426;9.424;2023-04-09T00:26:04;42.27;;;26.00;;
8652;SDS011;4364;52.426;9.424;2023-04-09T00:28:31;47.73;;;27.10;;
8652;SDS011;4364;52.426;9.424;2023-04-09T00:30:57;48.10;;;25.90;;
8652;SDS011;4364;52.426;9.424;2023-04-09T00:33:24;48.27;;;26.40;;
8652;SDS011;4364;52.426;9.424;2023-04-09T00:35:51;46.33;;;27.10;;
8652;SDS011;4364;52.426;9.424;2023-04-09T00:38:17;48.23;;;26.30;;
8652;SDS011;4364;52.426;9.424;2023-04-09T00:40:47;45.37;;;25.17;;
8652;SDS011;4364;52.426;9.424;2023-04-09T00:43:15;50.30;;;26.60;;
8652;SDS011;4364;52.426;9.424;2023-04-09T00:45:41;52.63;;;27.53;;
8652;SDS011;4364;52.426;9.424;2023-04-09T00:48:09;61.07;;;33.70;;
8652;SDS011;4364;52.426;9.424;2023-04-09T00:50:37;61.60;;;32.57;;
8652;SDS011;4364;52.426;9.424;2023-04-09T00:53:04;80.67;;;39.80;;
8652;SDS011;4364;52.426;9.424;2023-04-09T00:55:31;73.53;;;37.50;;
8652;SDS011;4364;52.426;9.424;2023-04-09T00:57:58;77.50;;;37.73;;
8652;SDS011;4364;52.426;9.424;2023-04-09T01:00:24;74.33;;;37.67;;
8652;SDS011;4364;52.426;9.424;2023-04-09T01:02:53;72.13;;;37.13;;
8652;SDS011;4364;52.426;9.424;2023-04-09T01:05:23;62.70;;;34.23;;
8652;SDS011;4364;52.426;9.424;2023-04-09T01:08:06;57.70;;;31.27;;
8652;SDS011;4364;52.426;9.424;2023-04-09T01:10:34;61.77;;;32.27;;
8652;SDS011;4364;52.426;9.424;2023-04-09T01:13:15;59.03;;;32.00;;
8652;SDS011;4364;52.426;9.424;2023-04-09T01:15:48;59.40;;;30.77;;
8652;SDS011;4364;52.426;9.424;2023-04-09T01:18:23;56.63;;;30.90;;
8652;SDS011;4364;52.426;9.424;2023-04-09T01:29:40;61.00;;;30.47;;
8652;SDS011;4364;52.426;9.424;2023-04-09T01:32:12;59.97;;;31.23;;
8652;SDS011;4364;52.426;9.424;2023-04-09T01:34:41;64.47;;;29.40;;
8652;SDS011;4364;52.426;9.424;2023-04-09T01:37:11;58.33;;;29.93;;
8652;SDS011;4364;52.426;9.424;2023-04-09T01:39:40;59.13;;;30.33;;
8652;SDS011;4364;52.426;9.424;2023-04-09T01:42:08;62.20;;;30.77;;
8652;SDS011;4364;52.426;9.424;2023-04-09T01:44:38;60.23;;;30.60;;
8652;SDS011;4364;52.426;9.424;2023-04-09T01:47:07;68.70;;;32.43;;
8652;SDS011;4364;52.426;9.424;2023-04-09T01:49:34;53.00;;;29.13;;
8652;SDS011;4364;52.426;9.424;2023-04-09T01:52:01;55.27;;;29.80;;
8652;SDS011;4364;52.426;9.424;2023-04-09T01:54:28;62.00;;;31.77;;
8652;SDS011;4364;52.426;9.424;2023-04-09T01:56:56;56.97;;;30.70;;
8652;SDS011;4364;52.426;9.424;2023-04-09T01:59:23;58.13;;;30.77;;
8652;SDS011;4364;52.426;9.424;2023-04-09T02:01:54;60.00;;;29.70;;
8652;SDS011;4364;52.426;9.424;2023-04-09T02:04:32;62.17;;;31.03;;
8652;SDS011;4364;52.426;9.424;2023-04-09T02:07:05;53.60;;;29.50;;
8652;SDS011;4364;52.426;9.424;2023-04-09T02:09:34;53.30;;;29.27;;
8652;SDS011;4364;52.426;9.424;2023-04-09T02:12:05;61.30;;;31.90;;
8652;SDS011;4364;52.426;9.424;2023-04-09T02:17:28;61.50;;;30.87;;
8652;SDS011;4364;52.426;9.424;2023-04-09T02:19:55;57.57;;;30.70;;
8652;SDS011;4364;52.426;9.424;2023-04-09T02:22:22;65.00;;;31.97;;
8652;SDS011;4364;52.426;9.424;2023-04-09T02:24:48;54.33;;;31.20;;
8652;SDS011;4364;52.426;9.424;2023-04-09T02:27:15;55.83;;;31.70;;
8652;SDS011;4364;52.426;9.424;2023-04-09T02:29:42;60.03;;;31.13;;
8652;SDS011;4364;52.426;9.424;2023-04-09T02:32:11;67.70;;;32.77;;
8652;SDS011;4364;52.426;9.424;2023-04-09T02:34:38;58.93;;;31.73;;
8652;SDS011;4364;52.426;9.424;2023-04-09T02:37:04;60.07;;;32.20;;
8652;SDS011;4364;52.426;9.424;2023-04-09T02:39:31;62.73;;;32.00;;
8652;SDS011;4364;52.426;9.424;2023-04-09T02:41:58;59.80;;;32.60;;
8652;SDS011;4364;52.426;9.424;2023-04-09T02:44:25;61.20;;;32.37;;
8652;SDS011;4364;52.426;9.424;2023-04-09T02:46:52;60.83;;;32.70;;
8652;SDS011;4364;52.426;9.424;2023-04-09T02:49:18;61.33;;;31.60;;
8652;SDS011;4364;52.426;9.424;2023-04-09T02:51:45;64.60;;;31.07;;
8652;SDS011;4364;52.426;9.424;2023-04-09T02:54:12;60.67;;;32.03;;
8652;SDS011;4364;52.426;9.424;2023-04-09T02:56:39;61.93;;;32.87;;
8652;SDS011;4364;52.426;9.424;2023-04-09T02:59:05;65.10;;;32.33;;
8652;SDS011;4364;52.426;9.424;2023-04-09T03:01:32;57.67;;;32.17;;
8652;SDS011;4364;52.426;9.424;2023-04-09T03:03:59;55.23;;;29.53;;
8652;SDS011;4364;52.426;9.424;2023-04-09T03:06:27;59.13;;;30.63;;
8652;SDS011;4364;52.426;9.424;2023-04-09T03:08:53;56.50;;;29.73;;
8652;SDS011;4364;52.426;9.424;2023-04-09T03:11:20;60.23;;;30.80;;
8652;SDS011;4364;52.426;9.424;2023-04-09T03:13:46;51.50;;;28.47;;
8652;SDS011;4364;52.426;9.424;2023-04-09T03:16:13;51.30;;;29.07;;
8652;SDS011;4364;52.426;9.424;2023-04-09T03:18:40;56.70;;;29.07;;
8652;SDS011;4364;52.426;9.424;2023-04-09T03:21:07;53.53;;;29.63;;
8652;SDS011;4364;52.426;9.424;2023-04-09T03:23:42;52.37;;;29.50;;
8652;SDS011;4364;52.426;9.424;2023-04-09T03:26:09;59.03;;;32.00;;
8652;SDS011;4364;52.426;9.424;2023-04-09T03:28:44;51.30;;;27.93;;
8652;SDS011;4364;52.426;9.424;2023-04-09T03:31:11;49.00;;;28.57;;
8652;SDS011;4364;52.426;9.424;2023-04-09T03:33:41;57.77;;;30.73;;
8652;SDS011;4364;52.426;9.424;2023-04-09T03:36:09;51.83;;;28.67;;
8652;SDS011;4364;52.426;9.424;2023-04-09T03:38:57;64.73;;;31.00;;
8652;SDS011;4364;52.426;9.424;2023-04-09T03:41:30;55.57;;;30.97;;
8652;SDS011;4364;52.426;9.424;2023-04-09T03:44:01;50.53;;;30.10;;
8652;SDS011;4364;52.426;9.424;2023-04-09T03:46:34;51.83;;;28.03;;
8652;SDS011;4364;52.426;9.424;2023-04-09T03:49:02;53.23;;;28.67;;
8652;SDS011;4364;52.426;9.424;2023-04-09T03:51:37;71.67;;;29.53;;
8652;SDS011;4364;52.426;9.424;2023-04-09T03:54:03;66.47;;;29.77;;
8652;SDS011;4364;52.426;9.424;2023-04-09T03:56:31;75.30;;;31.27;;
8652;SDS011;4364;52.426;9.424;2023-04-09T03:58:58;75.37;;;30.93;;
8652;SDS011;4364;52.426;9.424;2023-04-09T04:01:34;68.17;;;31.43;;
8652;SDS011;4364;52.426;9.424;2023-04-09T04:04:00;72.97;;;30.77;;
8652;SDS011;4364;52.426;9.424;2023-04-09T04:06:33;63.20;;;29.87;;
8652;SDS011;4364;52.426;9.424;2023-04-09T04:09:10;102.70;;;31.40;;
8652;SDS011;4364;52.426;9.424;2023-04-09T04:11:42;68.73;;;29.57;;
8652;SDS011;4364;52.426;9.424;2023-04-09T04:14:09;47.73;;;26.43;;
8652;SDS011;4364;52.426;9.424;2023-04-09T04:16:41;62.53;;;28.60;;
8652;SDS011;4364;52.426;9.424;2023-04-09T04:19:11;74.63;;;29.03;;
8652;SDS011;4364;52.426;9.424;2023-04-09T04:21:44;58.03;;;29.23;;
8652;SDS011;4364;52.426;9.424;2023-04-09T04:24:10;54.43;;;28.63;;
8652;SDS011;4364;52.426;9.424;2023-04-09T04:26:38;58.27;;;28.40;;
8652;SDS011;4364;52.426;9.424;2023-04-09T04:29:06;61.53;;;29.67;;
8652;SDS011;4364;52.426;9.424;2023-04-09T04:31:54;55.83;;;30.03;;
8652;SDS011;4364;52.426;9.424;2023-04-09T04:34:23;53.13;;;27.40;;
8652;SDS011;4364;52.426;9.424;2023-04-09T04:36:58;61.00;;;27.90;;
8652;SDS011;4364;52.426;9.424;2023-04-09T04:39:30;54.77;;;28.43;;
8652;SDS011;4364;52.426;9.424;2023-04-09T04:42:04;55.10;;;28.67;;
8652;SDS011;4364;52.426;9.424;2023-04-09T04:44:31;51.43;;;28.80;;
8652;SDS011;4364;52.426;9.424;2023-04-09T04:47:08;63.47;;;29.73;;
8652;SDS011;4364;52.426;9.424;2023-04-09T04:49:34;59.63;;;28.97;;
8652;SDS011;4364;52.426;9.424;2023-04-09T04:52:03;60.40;;;29.43;;
8652;SDS011;4364;52.426;9.424;2023-04-09T04:54:32;60.47;;;29.07;;
8652;SDS011;4364;52.426;9.424;2023-04-09T04:56:59;54.10;;;30.13;;
8652;SDS011;4364;52.426;9.424;2023-04-09T04:59:39;56.70;;;30.27;;
8652;SDS011;4364;52.426;9.424;2023-04-09T05:02:08;55.20;;;28.00;;
8652;SDS011;4364;52.426;9.424;2023-04-09T05:04:45;70.30;;;30.47;;
8652;SDS011;4364;52.426;9.424;2023-04-09T05:07:15;61.23;;;30.47;;
8652;SDS011;4364;52.426;9.424;2023-04-09T05:09:48;63.83;;;29.17;;
8652;SDS011;4364;52.426;9.424;2023-04-09T05:12:15;49.20;;;26.83;;
8652;SDS011;4364;52.426;9.424;2023-04-09T05:14:47;62.17;;;26.77;;
8652;SDS011;4364;52.426;9.424;2023-04-09T05:17:14;51.73;;;27.30;;
8652;SDS011;4364;52.426;9.424;2023-04-09T05:19:43;66.53;;;28.33;;
8652;SDS011;4364;52.426;9.424;2023-04-09T05:22:12;52.50;;;26.97;;
8652;SDS011;4364;52.426;9.424;2023-04-09T05:24:38;79.50;;;29.77;;
8652;SDS011;4364;52.426;9.424;2023-04-09T05:27:05;48.60;;;26.40;;
8652;SDS011;4364;52.426;9.424;2023-04-09T05:29:31;48.90;;;27.87;;
8652;SDS011;4364;52.426;9.424;2023-04-09T05:31:58;56.73;;;28.37;;
8652;SDS011;4364;52.426;9.424;2023-04-09T05:34:30;74.93;;;28.77;;
8652;SDS011;4364;52.426;9.424;2023-04-09T05:36:57;51.80;;;27.17;;
8652;SDS011;4364;52.426;9.424;2023-04-09T05:39:24;47.37;;;27.30;;
8652;SDS011;4364;52.426;9.424;2023-04-09T05:41:51;48.87;;;27.97;;
8652;SDS011;4364;52.426;9.424;2023-04-09T05:44:30;49.23;;;27.83;;
8652;SDS011;4364;52.426;9.424;2023-04-09T05:47:07;55.43;;;29.63;;
8652;SDS011;4364;52.426;9.424;2023-04-09T05:49:40;54.77;;;28.67;;
8652;SDS011;4364;52.426;9.424;2023-04-09T05:52:11;57.33;;;26.90;;
8652;SDS011;4364;52.426;9.424;2023-04-09T05:54:39;63.93;;;27.87;;
8652;SDS011;4364;52.426;9.424;2023-04-09T05:57:08;49.30;;;26.93;;
8652;SDS011;4364;52.426;9.424;2023-04-09T05:59:36;52.63;;;27.53;;
8652;SDS011;4364;52.426;9.424;2023-04-09T06:02:03;64.70;;;28.30;;
8652;SDS011;4364;52.426;9.424;2023-04-09T06:04:31;53.83;;;26.90;;
8652;SDS011;4364;52.426;9.424;2023-04-09T06:06:59;48.80;;;27.03;;
8652;SDS011;4364;52.426;9.424;2023-04-09T06:09:25;58.27;;;28.70;;
8652;SDS011;4364;52.426;9.424;2023-04-09T06:11:53;49.93;;;27.67;;
8652;SDS011;4364;52.426;9.424;2023-04-09T06:14:19;47.90;;;28.13;;
8652;SDS011;4364;52.426;9.424;2023-04-09T06:16:46;65.30;;;30.47;;
8652;SDS011;4364;52.426;9.424;2023-04-09T06:19:14;49.30;;;29.40;;
8652;SDS011;4364;52.426;9.424;2023-04-09T06:21:41;50.40;;;28.30;;
8652;SDS011;4364;52.426;9.424;2023-04-09T06:24:08;65.83;;;29.93;;
8652;SDS011;4364;52.426;9.424;2023-04-09T06:26:34;53.87;;;28.87;;
8652;SDS011;4364;52.426;9.424;2023-04-09T06:29:01;48.13;;;28.07;;
8652;SDS011;4364;52.426;9.424;2023-04-09T06:31:28;58.93;;;28.50;;
8652;SDS011;4364;52.426;9.424;2023-04-09T06:33:55;47.90;;;28.23;;
8652;SDS011;4364;52.426;9.424;2023-04-09T06:36:22;51.63;;;27.40;;
8652;SDS011;4364;52.426;9.424;2023-04-09T06:38:48;57.13;;;27.90;;
8652;SDS011;4364;52.426;9.424;2023-04-09T06:41:14;47.00;;;27.50;;
8652;SDS011;4364;52.426;9.424;2023-04-09T06:43:41;46.67;;;27.57;;
8652;SDS011;4364;52.426;9.424;2023-04-09T06:46:08;46.33;;;25.80;;
8652;SDS011;4364;52.426;9.424;2023-04-09T06:48:34;42.47;;;24.63;;
8652;SDS011;4364;52.426;9.424;2023-04-09T06:51:01;43.13;;;24.03;;
8652;SDS011;4364;52.426;9.424;2023-04-09T06:53:28;45.27;;;25.03;;
8652;SDS011;4364;52.426;9.424;2023-04-09T06:55:55;45.60;;;24.10;;
8652;SDS011;4364;52.426;9.424;2023-04-09T06:58:22;46.27;;;25.37;;
8652;SDS011;4364;52.426;9.424;2023-04-09T07:00:48;44.97;;;24.07;;
8652;SDS011;4364;52.426;9.424;2023-04-09T07:03:15;47.37;;;25.90;;
8652;SDS011;4364;52.426;9.424;2023-04-09T07:05:42;45.57;;;24.13;;
8652;SDS011;4364;52.426;9.424;2023-04-09T07:08:09;43.63;;;24.40;;
8652;SDS011;4364;52.426;9.424;2023-04-09T07:10:37;48.07;;;25.07;;
8652;SDS011;4364;52.426;9.424;2023-04-09T07:13:03;52.93;;;26.47;;
8652;SDS011;4364;52.426;9.424;2023-04-09T07:15:30;50.60;;;26.83;;
8652;SDS011;4364;52.426;9.424;2023-04-09T07:17:57;52.20;;;26.03;;
8652;SDS011;4364;52.426;9.424;2023-04-09T07:20:23;55.57;;;26.17;;
8652;SDS011;4364;52.426;9.424;2023-04-09T07:22:49;59.50;;;29.13;;
8652;SDS011;4364;52.426;9.424;2023-04-09T07:25:16;59.63;;;29.23;;
8652;SDS011;4364;52.426;9.424;2023-04-09T07:27:43;59.00;;;28.47;;
8652;SDS011;4364;52.426;9.424;2023-04-09T07:30:09;62.13;;;29.07;;
8652;SDS011;4364;52.426;9.424;2023-04-09T07:32:36;60.47;;;29.63;;
8652;SDS011;4364;52.426;9.424;2023-04-09T07:35:05;61.77;;;28.53;;
8652;SDS011;4364;52.426;9.424;2023-04-09T07:37:33;62.17;;;29.57;;
8652;SDS011;4364;52.426;9.424;2023-04-09T07:39:59;64.67;;;29.73;;
8652;SDS011;4364;52.426;9.424;2023-04-09T07:42:26;63.53;;;30.37;;
8652;SDS011;4364;52.426;9.424;2023-04-09T07:44:53;68.43;;;31.43;;
8652;SDS011;4364;52.426;9.424;2023-04-09T07:47:20;59.90;;;29.27;;
8652;SDS011;4364;52.426;9.424;2023-04-09T07:49:46;66.10;;;29.70;;
8652;SDS011;4364;52.426;9.424;2023-04-09T07:52:13;57.03;;;28.37;;
8652;SDS011;4364;52.426;9.424;2023-04-09T07:54:40;60.53;;;29.57;;
8652;SDS011;4364;52.426;9.424;2023-04-09T07:57:07;56.53;;;27.33;;
8652;SDS011;4364;52.426;9.424;2023-04-09T07:59:33;55.77;;;27.60;;
8652;SDS011;4364;52.426;9.424;2023-04-09T08:02:01;58.70;;;28.87;;
8652;SDS011;4364;52.426;9.424;2023-04-09T08:04:30;53.70;;;27.40;;
8652;SDS011;4364;52.426;9.424;2023-04-09T08:06:57;57.37;;;29.47;;
8652;SDS011;4364;52.426;9.424;2023-04-09T08:09:23;52.83;;;27.67;;
8652;SDS011;4364;52.426;9.424;2023-04-09T08:11:50;48.90;;;26.40;;
8652;SDS011;4364;52.426;9.424;2023-04-09T08:14:16;54.33;;;28.47;;
8652;SDS011;4364;52.426;9.424;2023-04-09T08:19:35;49.97;;;25.90;;
8652;SDS011;4364;52.426;9.424;2023-04-09T08:22:01;53.07;;;28.17;;
8652;SDS011;4364;52.426;9.424;2023-04-09T08:24:28;53.87;;;29.23;;
8652;SDS011;4364;52.426;9.424;2023-04-09T08:26:56;55.97;;;29.67;;
8652;SDS011;4364;52.426;9.424;2023-04-09T08:29:22;54.73;;;28.40;;
8652;SDS011;4364;52.426;9.424;2023-04-09T08:31:49;50.30;;;27.07;;
8652;SDS011;4364;52.426;9.424;2023-04-09T08:34:15;49.50;;;26.40;;
8652;SDS011;4364;52.426;9.424;2023-04-09T08:36:49;50.80;;;26.03;;
8652;SDS011;4364;52.426;9.424;2023-04-09T08:39:18;47.27;;;26.90;;
8652;SDS011;4364;52.426;9.424;2023-04-09T08:41:45;44.93;;;26.00;;
8652;SDS011;4364;52.426;9.424;2023-04-09T08:44:13;44.33;;;25.03;;
8652;SDS011;4364;52.426;9.424;2023-04-09T08:46:40;46.73;;;26.83;;
8652;SDS011;4364;52.426;9.424;2023-04-09T08:49:08;48.53;;;27.97;;
8652;SDS011;4364;52.426;9.424;2023-04-09T08:51:36;45.17;;;25.03;;
8652;SDS011;4364;52.426;9.424;2023-04-09T08:54:02;46.03;;;26.17;;
8652;SDS011;4364;52.426;9.424;2023-04-09T08:56:49;46.70;;;27.63;;
8652;SDS011;4364;52.426;9.424;2023-04-09T08:59:16;51.07;;;28.40;;
8652;SDS011;4364;52.426;9.424;2023-04-09T09:01:43;50.67;;;28.40;;
8652;SDS011;4364;52.426;9.424;2023-04-09T09:04:13;51.00;;;28.93;;
8652;SDS011;4364;52.426;9.424;2023-04-09T09:06:40;56.73;;;31.83;;
8652;SDS011;4364;52.426;9.424;2023-04-09T09:09:11;58.43;;;32.87;;
8652;SDS011;4364;52.426;9.424;2023-04-09T09:11:40;60.57;;;33.63;;
8652;SDS011;4364;52.426;9.424;2023-04-09T09:14:10;59.77;;;31.73;;
8652;SDS011;4364;52.426;9.424;2023-04-09T09:16:40;60.67;;;33.63;;
8652;SDS011;4364;52.426;9.424;2023-04-09T09:19:10;64.93;;;34.07;;
8652;SDS011;4364;52.426;9.424;2023-04-09T09:24:23;67.07;;;36.07;;
8652;SDS011;4364;52.426;9.424;2023-04-09T09:26:50;62.67;;;35.33;;
8652;SDS011;4364;52.426;9.424;2023-04-09T09:29:17;68.47;;;36.73;;
8652;SDS011;4364;52.426;9.424;2023-04-09T09:31:48;65.30;;;36.53;;
8652;SDS011;4364;52.426;9.424;2023-04-09T09:34:17;64.93;;;36.17;;
8652;SDS011;4364;52.426;9.424;2023-04-09T09:36:47;67.50;;;36.00;;
8652;SDS011;4364;52.426;9.424;2023-04-09T09:39:14;67.97;;;36.67;;
8652;SDS011;4364;52.426;9.424;2023-04-09T09:41:43;66.37;;;36.90;;
8652;SDS011;4364;52.426;9.424;2023-04-09T09:44:31;68.97;;;38.13;;
8652;SDS011;4364;52.426;9.424;2023-04-09T09:46:58;69.27;;;37.57;;
8652;SDS011;4364;52.426;9.424;2023-04-09T09:49:28;67.63;;;36.93;;
8652;SDS011;4364;52.426;9.424;2023-04-09T09:51:55;64.47;;;36.80;;
8652;SDS011;4364;52.426;9.424;2023-04-09T09:54:24;62.53;;;36.17;;
8652;SDS011;4364;52.426;9.424;2023-04-09T09:56:54;65.50;;;36.93;;
8652;SDS011;4364;52.426;9.424;2023-04-09T09:59:29;65.30;;;37.60;;
8652;SDS011;4364;52.426;9.424;2023-04-09T10:01:59;62.97;;;37.30;;
8652;SDS011;4364;52.426;9.424;2023-04-09T10:04:32;65.77;;;38.67;;
8652;SDS011;4364;52.426;9.424;2023-04-09T10:07:03;64.77;;;37.70;;
8652;SDS011;4364;52.426;9.424;2023-04-09T10:09:31;70.50;;;40.17;;
8652;SDS011;4364;52.426;9.424;2023-04-09T10:12:03;66.97;;;38.90;;
8652;SDS011;4364;52.426;9.424;2023-04-09T10:14:34;64.93;;;38.03;;
8652;SDS011;4364;52.426;9.424;2023-04-09T10:17:03;69.60;;;40.13;;
8652;SDS011;4364;52.426;9.424;2023-04-09T10:19:30;66.17;;;39.80;;
8652;SDS011;4364;52.426;9.424;2023-04-09T10:22:08;64.83;;;38.47;;
8652;SDS011;4364;52.426;9.424;2023-04-09T10:24:40;62.87;;;38.40;;
8652;SDS011;4364;52.426;9.424;2023-04-09T10:27:08;67.73;;;40.87;;
8652;SDS011;4364;52.426;9.424;2023-04-09T10:29:42;66.13;;;38.93;;
8652;SDS011;4364;52.426;9.424;2023-04-09T10:32:22;64.10;;;38.40;;
8652;SDS011;4364;52.426;9.424;2023-04-09T10:34:52;68.27;;;39.83;;
8652;SDS011;4364;52.426;9.424;2023-04-09T10:37:23;66.33;;;39.90;;
8652;SDS011;4364;52.426;9.424;2023-04-09T10:39:50;68.10;;;40.37;;
8652;SDS011;4364;52.426;9.424;2023-04-09T10:45:14;67.20;;;41.17;;
8652;SDS011;4364;52.426;9.424;2023-04-09T10:47:42;64.80;;;40.10;;
8652;SDS011;4364;52.426;9.424;2023-04-09T10:50:19;65.00;;;41.17;;
8652;SDS011;4364;52.426;9.424;2023-04-09T10:52:56;68.50;;;40.73;;
8652;SDS011;4364;52.426;9.424;2023-04-09T10:55:38;69.80;;;41.73;;
8652;SDS011;4364;52.426;9.424;2023-04-09T10:58:07;65.07;;;42.07;;
8652;SDS011;4364;52.426;9.424;2023-04-09T11:00:42;64.40;;;40.03;;
8652;SDS011;4364;52.426;9.424;2023-04-09T11:03:26;60.77;;;40.20;;
8652;SDS011;4364;52.426;9.424;2023-04-09T11:06:02;58.33;;;39.63;;
8652;SDS011;4364;52.426;9.424;2023-04-09T11:08:34;63.03;;;40.20;;
8652;SDS011;4364;52.426;9.424;2023-04-09T11:11:03;56.37;;;36.63;;
8652;SDS011;4364;52.426;9.424;2023-04-09T11:13:29;52.13;;;35.73;;
8652;SDS011;4364;52.426;9.424;2023-04-09T11:15:57;52.13;;;33.73;;
8652;SDS011;4364;52.426;9.424;2023-04-09T11:18:26;50.33;;;34.40;;
8652;SDS011;4364;52.426;9.424;2023-04-09T11:20:55;52.47;;;34.57;;
8652;SDS011;4364;52.426;9.424;2023-04-09T11:23:23;53.87;;;34.53;;
8652;SDS011;4364;52.426;9.424;2023-04-09T11:25:50;52.83;;;36.53;;
8652;SDS011;4364;52.426;9.424;2023-04-09T11:28:18;50.10;;;33.83;;
8652;SDS011;4364;52.426;9.424;2023-04-09T11:30:46;49.17;;;33.03;;
8652;SDS011;4364;52.426;9.424;2023-04-09T11:33:13;46.17;;;31.47;;
8652;SDS011;4364;52.426;9.424;2023-04-09T11:35:42;46.07;;;31.87;;
8652;SDS011;4364;52.426;9.424;2023-04-09T11:38:09;48.73;;;33.80;;
8652;SDS011;4364;52.426;9.424;2023-04-09T11:40:41;49.07;;;32.90;;
8652;SDS011;4364;52.426;9.424;2023-04-09T11:43:14;51.87;;;34.17;;
8652;SDS011;4364;52.426;9.424;2023-04-09T11:45:41;45.20;;;31.07;;
8652;SDS011;4364;52.426;9.424;2023-04-09T11:48:10;48.20;;;31.53;;
8652;SDS011;4364;52.426;9.424;2023-04-09T11:50:38;46.20;;;32.67;;
8652;SDS011;4364;52.426;9.424;2023-04-09T11:53:18;47.90;;;32.53;;
8652;SDS011;4364;52.426;9.424;2023-04-09T11:55:46;46.67;;;31.17;;
8652;SDS011;4364;52.426;9.424;2023-04-09T11:58:15;44.80;;;31.80;;
8652;SDS011;4364;52.426;9.424;2023-04-09T12:00:42;47.83;;;32.10;;
8652;SDS011;4364;52.426;9.424;2023-04-09T12:03:09;44.73;;;30.73;;
8652;SDS011;4364;52.426;9.424;2023-04-09T12:05:37;44.63;;;31.97;;
8652;SDS011;4364;52.426;9.424;2023-04-09T12:08:07;48.23;;;32.40;;
8652;SDS011;4364;52.426;9.424;2023-04-09T12:10:35;48.80;;;32.87;;
8652;SDS011;4364;52.426;9.424;2023-04-09T12:15:32;52.33;;;34.97;;
8652;SDS011;4364;52.426;9.424;2023-04-09T12:18:08;56.20;;;37.77;;
8652;SDS011;4364;52.426;9.424;2023-04-09T12:20:39;53.00;;;36.27;;
8652;SDS011;4364;52.426;9.424;2023-04-09T12:23:08;56.07;;;36.60;;
8652;SDS011;4364;52.426;9.424;2023-04-09T12:25:36;59.93;;;38.40;;
8652;SDS011;4364;52.426;9.424;2023-04-09T12:28:04;60.73;;;39.13;;
8652;SDS011;4364;52.426;9.424;2023-04-09T12:30:33;60.97;;;40.07;;
8652;SDS011;4364;52.426;9.424;2023-04-09T12:33:00;60.43;;;39.53;;
8652;SDS011;4364;52.426;9.424;2023-04-09T12:35:28;58.63;;;37.30;;
8652;SDS011;4364;52.426;9.424;2023-04-09T12:37:56;55.60;;;36.90;;
8652;SDS011;4364;52.426;9.424;2023-04-09T12:40:24;55.20;;;36.93;;
8652;SDS011;4364;52.426;9.424;2023-04-09T12:42:50;49.07;;;31.93;;
8652;SDS011;4364;52.426;9.424;2023-04-09T12:45:17;45.27;;;29.40;;
8652;SDS011;4364;52.426;9.424;2023-04-09T12:47:45;42.10;;;26.87;;
8652;SDS011;4364;52.426;9.424;2023-04-09T12:50:12;41.67;;;27.40;;
8652;SDS011;4364;52.426;9.424;2023-04-09T12:52:41;44.77;;;29.20;;
8652;SDS011;4364;52.426;9.424;2023-04-09T12:55:10;41.70;;;28.00;;
8652;SDS011;4364;52.426;9.424;2023-04-09T12:57:38;43.17;;;28.67;;
8652;SDS011;4364;52.426;9.424;2023-04-09T13:00:06;41.00;;;26.97;;
8652;SDS011;4364;52.426;9.424;2023-04-09T13:02:34;38.40;;;25.63;;
8652;SDS011;4364;52.426;9.424;2023-04-09T13:05:01;35.90;;;24.00;;
8652;SDS011;4364;52.426;9.424;2023-04-09T13:07:28;36.93;;;24.50;;
8652;SDS011;4364;52.426;9.424;2023-04-09T13:10:02;35.63;;;24.97;;
8652;SDS011;4364;52.426;9.424;2023-04-09T13:12:28;35.27;;;22.83;;
8652;SDS011;4364;52.426;9.424;2023-04-09T13:14:57;37.33;;;24.83;;
8652;SDS011;4364;52.426;9.424;2023-04-09T13:17:24;37.43;;;24.23;;
8652;SDS011;4364;52.426;9.424;2023-04-09T13:19:51;36.20;;;24.03;;
8652;SDS011;4364;52.426;9.424;2023-04-09T13:22:17;32.97;;;23.77;;
8652;SDS011;4364;52.426;9.424;2023-04-09T13:24:44;34.07;;;23.03;;
8652;SDS011;4364;52.426;9.424;2023-04-09T13:27:11;34.73;;;22.37;;
8652;SDS011;4364;52.426;9.424;2023-04-09T13:29:38;31.40;;;22.63;;
8652;SDS011;4364;52.426;9.424;2023-04-09T13:32:04;34.67;;;23.30;;
8652;SDS011;4364;52.426;9.424;2023-04-09T13:34:33;31.40;;;21.67;;
8652;SDS011;4364;52.426;9.424;2023-04-09T13:37:03;29.57;;;22.07;;
8652;SDS011;4364;52.426;9.424;2023-04-09T13:39:30;29.97;;;21.33;;
8652;SDS011;4364;52.426;9.424;2023-04-09T13:41:57;29.87;;;20.23;;
8652;SDS011;4364;52.426;9.424;2023-04-09T13:44:24;31.00;;;21.17;;
8652;SDS011;4364;52.426;9.424;2023-04-09T13:46:50;30.10;;;20.33;;
8652;SDS011;4364;52.426;9.424;2023-04-09T13:49:17;28.57;;;19.53;;
8652;SDS011;4364;52.426;9.424;2023-04-09T13:51:44;28.80;;;20.37;;
8652;SDS011;4364;52.426;9.424;2023-04-09T13:54:11;30.70;;;21.50;;
8652;SDS011;4364;52.426;9.424;2023-04-09T13:56:39;28.10;;;20.00;;
8652;SDS011;4364;52.426;9.424;2023-04-09T13:59:05;29.30;;;20.40;;
8652;SDS011;4364;52.426;9.424;2023-04-09T14:01:32;29.07;;;20.17;;
8652;SDS011;4364;52.426;9.424;2023-04-09T14:03:59;30.03;;;20.07;;
8652;SDS011;4364;52.426;9.424;2023-04-09T14:06:26;29.43;;;20.77;;
8652;SDS011;4364;52.426;9.424;2023-04-09T14:08:53;31.10;;;21.30;;
8652;SDS011;4364;52.426;9.424;2023-04-09T14:11:19;30.13;;;20.03;;
8652;SDS011;4364;52.426;9.424;2023-04-09T14:13:46;29.03;;;19.77;;
8652;SDS011;4364;52.426;9.424;2023-04-09T14:16:13;31.93;;;21.40;;
8652;SDS011;4364;52.426;9.424;2023-04-09T14:18:40;28.60;;;20.07;;
8652;SDS011;4364;52.426;9.424;2023-04-09T14:21:06;30.73;;;21.50;;
8652;SDS011;4364;52.426;9.424;2023-04-09T14:23:35;34.10;;;22.53;;
8652;SDS011;4364;52.426;9.424;2023-04-09T14:26:02;34.17;;;22.53;;
8652;SDS011;4364;52.426;9.424;2023-04-09T14:28:30;35.07;;;23.43;;
8652;SDS011;4364;52.426;9.424;2023-04-09T14:30:57;32.70;;;21.50;;
8652;SDS011;4364;52.426;9.424;2023-04-09T14:33:24;35.10;;;22.23;;
8652;SDS011;4364;52.426;9.424;2023-04-09T14:35:51;36.93;;;24.37;;
8652;SDS011;4364;52.426;9.424;2023-04-09T14:38:18;38.27;;;25.33;;
8652;SDS011;4364;52.426;9.424;2023-04-09T14:43:36;39.50;;;27.03;;
8652;SDS011;4364;52.426;9.424;2023-04-09T14:46:03;37.13;;;25.40;;
8652;SDS011;4364;52.426;9.424;2023-04-09T14:48:31;37.80;;;25.13;;
8652;SDS011;4364;52.426;9.424;2023-04-09T14:50:58;40.93;;;25.70;;
8652;SDS011;4364;52.426;9.424;2023-04-09T14:53:24;42.23;;;26.83;;
8652;SDS011;4364;52.426;9.424;2023-04-09T14:55:51;40.50;;;26.60;;
8652;SDS011;4364;52.426;9.424;2023-04-09T14:58:17;37.83;;;24.73;;
8652;SDS011;4364;52.426;9.424;2023-04-09T15:00:44;43.07;;;27.07;;
8652;SDS011;4364;52.426;9.424;2023-04-09T15:03:11;40.27;;;26.33;;
8652;SDS011;4364;52.426;9.424;2023-04-09T15:05:38;37.97;;;26.17;;
8652;SDS011;4364;52.426;9.424;2023-04-09T15:08:05;42.47;;;27.87;;
8652;SDS011;4364;52.426;9.424;2023-04-09T15:10:31;39.63;;;26.67;;
8652;SDS011;4364;52.426;9.424;2023-04-09T15:12:58;41.63;;;27.13;;
8652;SDS011;4364;52.426;9.424;2023-04-09T15:15:25;40.03;;;27.33;;
8652;SDS011;4364;52.426;9.424;2023-04-09T15:17:51;38.50;;;26.73;;
8652;SDS011;4364;52.426;9.424;2023-04-09T15:20:18;39.77;;;26.17;;
8652;SDS011;4364;52.426;9.424;2023-04-09T15:22:45;39.43;;;27.33;;